Palominas, Arizona
Current Conditions -  °F | °C
As of 7:56 PM on Thursday 27 Nov 2014 (Local Time) from KFHU Reporting Station
Clear Clear  
Wind Chill: 54°   Ceiling: Unl
Heat Index: 54°   Visibility: 10mi
Dew Point: 19°   Wind: 0mph
Humidity: 25%   Direction: NA
Pressure: 30.27"   Gusts: NA
Location:  31.4041°N, 110.306°W
Report Text: KFHU 280256Z AUTO 00000KT 10SM CLR 12/M07 A3027 RMK AO2 SLP227 T01221072 53007 $
Loading
Personal Weather Stations






























Interactive Weather Map New forecast layout! Learn more

10-Day Weather Forecast

Advertisements
Track Severe Weather on mobile